Time;durP1;ratioP1;P1;durP2;ratioP2;P2;SDS_P1;SDS_P2;PMS_P1;PMS_P2;Temp;Humidity;BMP_temperature;BMP_pressure;BME280_temperature;BME280_humidity;BME280_pressure;Samples;Min_cycle;Max_cycle;Signal;HPM_P1;HPM_P2
2022/03/10 00:00:10;;;;;;;11.43;6.27;;;;;;;-2.19;97.85;101009.16;4967734;28;20035;-82
2022/03/10 00:02:35;;;;;;;9.93;5.85;;;;;;;-2.26;97.12;101006.75;4977754;28;20035;-80
2022/03/10 00:05:01;;;;;;;11.00;6.30;;;;;;;-2.22;97.53;101003.78;5030838;28;20124;-80
2022/03/10 00:07:28;;;;;;;10.53;6.10;;;;;;;-2.18;97.70;101007.50;5012927;28;20450;-80
2022/03/10 00:09:53;;;;;;;9.17;5.80;;;;;;;-2.39;97.41;100965.84;5013119;28;20025;-83
2022/03/10 00:12:19;;;;;;;10.33;6.33;;;;;;;-2.65;96.14;100959.19;5011587;28;20052;-90
2022/03/10 00:14:44;;;;;;;9.60;5.70;;;;;;;-2.63;97.98;100991.44;5013478;28;20117;-81
2022/03/10 00:17:10;;;;;;;8.90;5.60;;;;;;;-2.80;98.12;100997.38;5025216;28;20022;-83
2022/03/10 00:19:35;;;;;;;10.87;6.23;;;;;;;-2.79;98.77;100999.16;5006189;28;20041;-80
2022/03/10 00:22:01;;;;;;;10.03;5.50;;;;;;;-2.70;98.86;100990.72;5004614;28;20453;-77
2022/03/10 00:24:26;;;;;;;8.40;5.17;;;;;;;-2.61;97.60;101002.59;5023045;28;20029;-88
2022/03/10 00:26:52;;;;;;;9.80;6.30;;;;;;;-2.67;98.28;101003.63;5022938;28;20026;-85
2022/03/10 00:29:17;;;;;;;8.10;5.20;;;;;;;-2.64;98.84;100996.38;5023694;28;20053;-79
2022/03/10 00:31:43;;;;;;;11.60;5.27;;;;;;;-2.73;97.93;101010.59;5020482;28;20049;-80
2022/03/10 00:34:08;;;;;;;13.03;5.53;;;;;;;-3.07;97.50;101012.31;5012084;28;20038;-81
2022/03/10 00:36:34;;;;;;;8.47;4.90;;;;;;;-3.06;97.77;100999.84;5005007;28;20095;-81
2022/03/10 00:39:00;;;;;;;11.50;5.93;;;;;;;-2.93;97.73;101000.31;4998885;28;20037;-80
2022/03/10 00:41:25;;;;;;;10.50;6.10;;;;;;;-3.21;97.52;100955.41;5020885;28;20034;-81
2022/03/10 00:43:51;;;;;;;11.13;6.30;;;;;;;-3.10;96.99;100975.03;5001961;28;20120;-81
2022/03/10 00:46:16;;;;;;;8.10;5.10;;;;;;;-3.13;96.38;100990.78;5021636;28;20383;-81
2022/03/10 00:48:42;;;;;;;10.30;5.87;;;;;;;-3.17;96.41;101000.41;5019753;28;20092;-81
2022/03/10 00:51:07;;;;;;;9.80;5.80;;;;;;;-3.51;96.65;100970.13;5011696;28;20033;-81
2022/03/10 00:53:34;;;;;;;9.83;6.23;;;;;;;-3.75;99.19;100986.19;4993519;28;20030;-81
2022/03/10 00:55:59;;;;;;;12.03;7.53;;;;;;;-3.97;100.00;100981.47;5011046;28;20104;-80
2022/03/10 00:58:25;;;;;;;10.40;6.90;;;;;;;-3.92;100.00;100995.44;5011012;28;20113;-81
2022/03/10 01:00:53;;;;;;;10.33;6.13;;;;;;;-3.98;100.00;100982.22;4990473;28;20140;-81
2022/03/10 01:03:19;;;;;;;12.07;6.37;;;;;;;-4.10;100.00;100989.41;5010892;28;20065;-81
2022/03/10 01:05:45;;;;;;;10.87;6.37;;;;;;;-4.26;100.00;100968.38;5011089;28;20161;-85
2022/03/10 01:08:11;;;;;;;10.37;6.70;;;;;;;-4.05;100.00;100972.22;5011261;28;20037;-81
2022/03/10 01:10:37;;;;;;;11.53;7.07;;;;;;;-4.36;100.00;100892.53;4991860;28;20038;-83
2022/03/10 01:16:13;;;;;;;9.20;5.40;;;;;;;-4.27;98.19;100986.78;5102394;23;20065;-78
2022/03/10 01:18:38;;;;;;;9.07;5.93;;;;;;;-4.47;98.26;100972.97;5029160;28;20037;-77
2022/03/10 01:21:04;;;;;;;11.43;6.03;;;;;;;-4.33;99.39;100991.19;5030542;28;20030;-80
2022/03/10 01:23:29;;;;;;;11.17;5.60;;;;;;;-4.52;98.88;100969.09;5029241;28;20030;-80
2022/03/10 01:25:55;;;;;;;8.47;5.53;;;;;;;-4.61;99.11;100968.13;5031009;28;20033;-85
2022/03/10 01:28:20;;;;;;;10.27;5.33;;;;;;;-4.67;99.46;100937.22;5030795;28;20104;-85
2022/03/10 01:30:46;;;;;;;9.43;5.47;;;;;;;-4.16;99.93;100976.19;5031336;28;20026;-88
2022/03/10 01:33:11;;;;;;;8.87;5.47;;;;;;;-4.93;99.04;100843.13;5008539;28;20444;-89
2022/03/10 01:35:37;;;;;;;10.60;5.50;;;;;;;-4.28;99.50;100967.34;4992563;28;20050;-84
2022/03/10 01:38:02;;;;;;;10.77;5.80;;;;;;;-4.72;99.79;100922.53;5008537;28;20446;-79
2022/03/10 01:40:28;;;;;;;10.43;6.57;;;;;;;-4.49;100.00;100960.97;5008628;28;20046;-89
2022/03/10 01:42:54;;;;;;;13.30;7.00;;;;;;;-4.66;100.00;100981.84;5008561;28;20049;-83
2022/03/10 01:45:19;;;;;;;14.73;7.60;;;;;;;-4.57;100.00;100980.31;5004079;28;20574;-80
2022/03/10 01:47:45;;;;;;;10.93;6.73;;;;;;;-4.63;100.00;100974.63;4991957;28;20069;-85
2022/03/10 01:50:12;;;;;;;14.40;7.30;;;;;;;-4.59;100.00;100981.78;5008183;28;20030;-81
2022/03/10 01:52:39;;;;;;;13.83;6.67;;;;;;;-4.60;100.00;100983.41;5008210;28;20105;-82
2022/03/10 01:55:05;;;;;;;14.10;8.20;;;;;;;-4.48;100.00;100985.44;4991947;28;20033;-82
2022/03/10 01:57:30;;;;;;;12.93;6.90;;;;;;;-4.69;100.00;100951.31;5008369;28;20030;-89
2022/03/10 01:59:56;;;;;;;12.80;7.43;;;;;;;-4.43;100.00;100977.59;4991976;28;20433;-87
2022/03/10 02:02:22;;;;;;;31.27;15.80;;;;;;;-4.28;100.00;100987.50;5009617;28;20603;-83
2022/03/10 02:04:47;;;;;;;29.23;16.30;;;;;;;-4.07;100.00;100981.28;5022893;28;20041;-81
2022/03/10 02:10:16;;;;;;;11.30;6.60;;;;;;;-3.88;100.00;100975.59;5034183;28;20044;-80
2022/03/10 02:12:43;;;;;;;11.93;6.30;;;;;;;-3.75;100.00;100994.66;5034029;28;20029;-83
2022/03/10 02:18:02;;;;;;;9.77;5.70;;;;;;;-3.77;99.68;100972.53;5033832;28;20095;-80
2022/03/10 02:20:29;;;;;;;8.73;4.97;;;;;;;-3.79;99.53;100985.00;5032182;28;20029;-80
2022/03/10 02:22:54;;;;;;;8.03;4.70;;;;;;;-3.85;98.08;100970.84;5032437;28;20120;-82
2022/03/10 02:25:22;;;;;;;9.17;5.03;;;;;;;-3.68;98.16;100985.22;5033650;28;20036;-83
2022/03/10 02:27:53;;;;;;;11.83;5.43;;;;;;;-3.93;97.17;100970.97;5032102;28;20099;-81
2022/03/10 02:30:20;;;;;;;11.30;5.87;;;;;;;-4.15;98.41;100962.84;5034094;28;20068;-83
2022/03/10 02:32:47;;;;;;;13.53;6.57;;;;;;;-4.42;100.00;100976.88;5033252;28;20072;-79
2022/03/10 02:35:14;;;;;;;13.60;7.40;;;;;;;-4.80;100.00;100963.66;5015695;28;20471;-81
2022/03/10 02:37:40;;;;;;;13.10;7.93;;;;;;;-5.24;100.00;100965.75;5015631;28;20041;-81
2022/03/10 02:40:06;;;;;;;14.23;8.47;;;;;;;-5.43;100.00;100972.94;5015646;28;20034;-82
2022/03/10 02:42:32;;;;;;;15.30;8.17;;;;;;;-5.55;100.00;100957.38;5033164;28;20033;-84
2022/03/10 02:44:58;;;;;;;14.07;7.33;;;;;;;-5.50;100.00;100970.47;5015434;28;20476;-86
2022/03/10 02:47:24;;;;;;;11.30;6.73;;;;;;;-5.75;100.00;100942.66;5014409;28;20416;-80
2022/03/10 02:49:49;;;;;;;10.20;6.20;;;;;;;-5.64;100.00;100978.16;5014608;28;20034;-80
2022/03/10 02:52:15;;;;;;;56.83;40.37;;;;;;;-5.86;100.00;100916.34;5032116;28;20080;-82
2022/03/10 02:54:41;;;;;;;16.10;11.13;;;;;;;-5.39;100.00;100969.13;5014745;28;20476;-81
2022/03/10 02:57:08;;;;;;;9.43;5.67;;;;;;;-5.33;100.00;100957.22;5014363;28;20037;-83
2022/03/10 02:59:33;;;;;;;10.77;5.83;;;;;;;-5.13;100.00;100961.88;4996801;28;20507;-83
2022/03/10 03:01:59;;;;;;;10.63;5.67;;;;;;;-5.04;100.00;100967.88;5032125;28;20025;-83
2022/03/10 03:04:25;;;;;;;10.27;5.67;;;;;;;-5.09;100.00;100961.44;5013053;28;20017;-81
2022/03/10 03:06:51;;;;;;;11.03;6.10;;;;;;;-5.06;100.00;100941.66;5031543;28;20041;-82
2022/03/10 03:09:16;;;;;;;9.10;5.80;;;;;;;-4.73;100.00;100966.09;4989820;28;20038;-81
2022/03/10 03:11:42;;;;;;;9.87;5.57;;;;;;;-4.67;99.77;100949.81;4974126;28;20042;-80
2022/03/10 03:14:07;;;;;;;9.47;6.00;;;;;;;-4.95;98.72;100957.00;4973704;28;20140;-79
2022/03/10 03:16:33;;;;;;;13.83;6.00;;;;;;;-5.24;100.00;100929.63;4990163;28;20038;-79
2022/03/10 03:18:58;;;;;;;19.17;7.27;;;;;;;-5.12;100.00;100953.59;4989817;28;20050;-80
2022/03/10 03:21:24;;;;;;;15.93;8.93;;;;;;;-5.41;100.00;100963.94;4989691;28;20030;-82
2022/03/10 03:23:50;;;;;;;11.47;5.93;;;;;;;-5.25;100.00;100973.13;4989664;28;20052;-78
2022/03/10 03:26:16;;;;;;;7.77;4.40;;;;;;;-5.20;100.00;100969.47;4989687;28;20030;-82
2022/03/10 03:28:42;;;;;;;7.90;5.17;;;;;;;-5.22;100.00;100971.84;4990193;28;20047;-84
2022/03/10 03:31:09;;;;;;;9.57;4.83;;;;;;;-5.27;100.00;100970.47;4973333;28;20432;-81
2022/03/10 03:33:35;;;;;;;7.90;4.47;;;;;;;-5.26;100.00;100958.75;4990060;28;20064;-80
2022/03/10 03:36:00;;;;;;;9.73;4.83;;;;;;;-5.11;100.00;100972.09;4973649;28;20125;-82
2022/03/10 03:38:26;;;;;;;8.50;5.67;;;;;;;-5.05;100.00;100973.66;4990279;28;20065;-80
2022/03/10 03:40:51;;;;;;;9.20;5.63;;;;;;;-4.97;100.00;100966.00;5021254;28;20037;-80
2022/03/10 03:43:17;;;;;;;8.03;4.53;;;;;;;-5.31;100.00;100912.94;5014204;28;20472;-81
2022/03/10 03:45:42;;;;;;;8.90;4.80;;;;;;;-4.94;100.00;100982.34;5029528;28;20029;-83
2022/03/10 03:48:08;;;;;;;9.10;5.80;;;;;;;-4.90;100.00;100966.84;5013418;28;20481;-83
2022/03/10 03:50:33;;;;;;;7.90;5.43;;;;;;;-4.84;100.00;100950.59;5013102;28;20025;-81
2022/03/10 03:52:59;;;;;;;8.63;5.03;;;;;;;-4.56;97.11;100987.13;5013076;28;20060;-81
2022/03/10 03:55:24;;;;;;;9.30;5.63;;;;;;;-4.85;96.55;100951.31;5030785;28;20491;-81
2022/03/10 03:57:50;;;;;;;9.27;5.83;;;;;;;-4.85;96.42;100987.47;5031201;28;20207;-81
2022/03/10 04:00:16;;;;;;;10.03;5.83;;;;;;;-4.81;97.07;100978.59;5012572;28;20057;-79
2022/03/10 04:02:42;;;;;;;8.83;5.30;;;;;;;-4.62;97.59;100979.81;5029426;28;20374;-82
2022/03/10 04:05:08;;;;;;;8.07;4.90;;;;;;;-4.54;96.72;100988.19;5012883;28;20038;-80
2022/03/10 04:07:34;;;;;;;7.80;4.90;;;;;;;-4.39;96.29;100984.78;5030327;28;20053;-80
2022/03/10 04:10:00;;;;;;;8.37;5.27;;;;;;;-4.39;96.12;100971.25;5030469;28;20476;-80
2022/03/10 04:12:26;;;;;;;9.37;5.00;;;;;;;-4.25;95.30;100990.34;5001886;28;20037;-78
2022/03/10 04:14:51;;;;;;;8.27;4.70;;;;;;;-4.23;94.67;100989.75;5030324;28;20041;-78
2022/03/10 04:17:17;;;;;;;8.10;4.80;;;;;;;-4.49;92.52;100966.00;4996137;28;20037;-81
2022/03/10 04:19:42;;;;;;;9.83;4.90;;;;;;;-4.53;93.64;101006.75;5030992;28;20495;-81
2022/03/10 04:22:07;;;;;;;10.20;4.90;;;;;;;-4.72;94.62;101005.66;5013157;28;20056;-78
2022/03/10 04:24:34;;;;;;;9.83;5.40;;;;;;;-4.84;96.11;100976.66;5012081;28;20072;-78
2022/03/10 04:27:00;;;;;;;12.97;5.33;;;;;;;-4.81;95.12;100994.63;5030190;28;20021;-80
2022/03/10 04:29:25;;;;;;;10.73;5.50;;;;;;;-4.71;94.52;101001.50;5029943;28;20423;-80
2022/03/10 04:31:51;;;;;;;9.50;6.07;;;;;;;-4.86;95.02;100985.66;5030699;28;20029;-82
2022/03/10 04:34:17;;;;;;;8.87;5.60;;;;;;;-4.73;98.39;101001.34;5030737;28;20100;-77
2022/03/10 04:36:42;;;;;;;11.57;6.03;;;;;;;-4.58;99.35;101009.66;5030946;28;20557;-78
2022/03/10 04:39:08;;;;;;;10.13;6.03;;;;;;;-4.52;98.30;101004.38;5030832;28;20021;-77
2022/03/10 04:41:34;;;;;;;11.33;6.80;;;;;;;-4.61;98.70;101011.84;5030966;28;20566;-77
2022/03/10 04:44:00;;;;;;;11.53;6.70;;;;;;;-4.69;99.22;100999.19;5012746;28;20403;-78
2022/03/10 04:46:26;;;;;;;7.53;5.60;;;;;;;-4.64;99.33;101003.06;5030664;28;20032;-78
2022/03/10 04:48:51;;;;;;;10.47;5.80;;;;;;;-4.91;97.80;100967.56;5013026;28;20517;-78
2022/03/10 04:51:17;;;;;;;19.27;9.77;;;;;;;-4.76;96.77;101025.31;5030211;28;20083;-78
2022/03/10 04:53:42;;;;;;;14.90;8.63;;;;;;;-5.07;96.67;101029.59;5031098;28;20120;-78
2022/03/10 04:56:08;;;;;;;11.40;5.67;;;;;;;-5.11;97.22;101023.34;5035906;28;20139;-78
2022/03/10 04:58:34;;;;;;;8.87;5.80;;;;;;;-5.13;97.79;101024.81;5038793;28;20101;-78
2022/03/10 05:00:59;;;;;;;10.43;6.47;;;;;;;-5.05;96.93;101026.53;5019044;28;20033;-77
2022/03/10 05:03:24;;;;;;;11.33;6.67;;;;;;;-5.11;96.66;101040.97;4970362;28;20527;-78
2022/03/10 05:05:50;;;;;;;14.30;6.83;;;;;;;-5.12;97.05;101041.69;4979334;28;20090;-78
2022/03/10 05:08:15;;;;;;;10.93;7.00;;;;;;;-4.97;96.75;101046.59;5008143;28;20053;-77
2022/03/10 05:10:41;;;;;;;10.10;5.70;;;;;;;-4.98;96.76;101029.72;5008048;28;20029;-77
2022/03/10 05:13:07;;;;;;;10.07;5.70;;;;;;;-5.10;95.97;101040.22;5007913;28;20046;-77
2022/03/10 05:15:33;;;;;;;11.27;5.40;;;;;;;-5.26;96.61;101032.66;4999612;28;20133;-78
2022/03/10 05:18:00;;;;;;;11.10;6.30;;;;;;;-5.30;95.97;101049.75;4968890;28;20174;-78
2022/03/10 05:20:26;;;;;;;13.77;6.63;;;;;;;-5.31;95.96;101063.06;4968707;28;20836;-79
2022/03/10 05:22:54;;;;;;;14.77;7.03;;;;;;;-5.40;96.55;101045.34;4968949;28;20086;-77
2022/03/10 05:25:20;;;;;;;14.60;6.83;;;;;;;-5.18;96.93;101055.22;4970118;28;20805;-78
2022/03/10 05:27:47;;;;;;;12.07;6.23;;;;;;;-4.97;97.22;101064.22;4984220;28;20037;-78
2022/03/10 05:30:14;;;;;;;15.10;6.50;;;;;;;-5.17;97.08;101050.38;5008231;28;20132;-78
2022/03/10 05:32:40;;;;;;;11.90;6.80;;;;;;;-5.21;97.65;101049.16;5008057;28;20050;-79
2022/03/10 05:35:07;;;;;;;12.53;7.23;;;;;;;-5.00;98.75;101068.94;4988801;28;20045;-79
2022/03/10 05:37:36;;;;;;;12.63;7.47;;;;;;;-4.87;100.00;101070.41;5012318;28;20034;-78
2022/03/10 05:40:05;;;;;;;15.15;7.75;;;;;;;-4.70;100.00;101061.25;5015083;28;20022;-79
2022/03/10 05:42:31;;;;;;;13.45;7.53;;;;;;;-4.43;100.00;101060.78;5014959;28;20026;-79
2022/03/10 05:44:56;;;;;;;20.33;10.40;;;;;;;-4.19;100.00;101063.22;4980770;28;20048;-78
2022/03/10 05:47:22;;;;;;;17.93;9.20;;;;;;;-4.31;100.00;101065.31;5016237;28;20033;-78
2022/03/10 05:49:49;;;;;;;23.87;9.87;;;;;;;-4.29;100.00;101081.50;5033800;28;20037;-77
2022/03/10 05:52:15;;;;;;;24.70;9.47;;;;;;;-4.85;100.00;101029.41;5033974;28;20096;-81
2022/03/10 05:54:41;;;;;;;15.67;6.63;;;;;;;-4.80;100.00;101071.06;5034666;28;20113;-79
2022/03/10 05:57:08;;;;;;;8.63;5.03;;;;;;;-4.85;100.00;101067.16;5034035;28;20026;-81
2022/03/10 05:59:33;;;;;;;10.97;5.70;;;;;;;-4.71;100.00;101072.97;5033765;28;20036;-81
2022/03/10 06:01:59;;;;;;;9.97;5.37;;;;;;;-4.63;100.00;101062.81;5016380;28;20120;-81
2022/03/10 06:04:25;;;;;;;9.13;5.13;;;;;;;-4.57;100.00;101086.16;5034194;28;20044;-80
2022/03/10 06:06:50;;;;;;;8.90;5.10;;;;;;;-4.70;100.00;101073.84;5033617;28;20476;-80
2022/03/10 06:09:16;;;;;;;10.40;5.77;;;;;;;-4.47;100.00;101090.56;5034242;28;20052;-81
2022/03/10 06:11:43;;;;;;;21.90;7.20;;;;;;;-4.44;100.00;101079.13;5015829;28;20468;-81
2022/03/10 06:14:10;;;;;;;13.60;6.40;;;;;;;-4.55;100.00;101039.31;5033736;28;20108;-83
2022/03/10 06:16:35;;;;;;;16.07;7.00;;;;;;;-4.26;100.00;101081.81;5016033;28;20056;-81
2022/03/10 06:19:00;;;;;;;17.77;7.10;;;;;;;-4.12;100.00;101088.34;5015985;28;20407;-81
2022/03/10 06:21:28;;;;;;;13.93;6.90;;;;;;;-4.35;100.00;101028.81;5033709;28;20410;-81
2022/03/10 06:23:53;;;;;;;16.87;7.47;;;;;;;-3.93;100.00;101073.50;5033884;28;20031;-81
2022/03/10 06:26:19;;;;;;;12.53;7.57;;;;;;;-3.87;100.00;101073.25;5015828;28;20120;-79
2022/03/10 06:28:44;;;;;;;10.13;5.83;;;;;;;-3.71;100.00;101068.16;5033812;28;20033;-80
2022/03/10 06:31:10;;;;;;;16.50;11.10;;;;;;;-3.67;100.00;101072.78;5033434;28;20029;-81
2022/03/10 06:33:36;;;;;;;10.50;6.43;;;;;;;-3.50;100.00;101070.38;5050596;28;20064;-80
2022/03/10 06:36:03;;;;;;;12.97;6.30;;;;;;;-3.35;100.00;101085.28;5053582;28;20049;-81
2022/03/10 06:38:29;;;;;;;15.10;6.90;;;;;;;-3.21;100.00;101080.00;5030545;28;20095;-79
2022/03/10 06:40:54;;;;;;;13.43;6.43;;;;;;;-3.24;100.00;101074.63;5035081;28;20028;-80
2022/03/10 06:43:20;;;;;;;15.53;7.63;;;;;;;-3.13;100.00;101061.50;5035455;28;20036;-81
2022/03/10 06:45:45;;;;;;;9.60;5.93;;;;;;;-3.26;100.00;101040.78;5052751;28;20092;-82
2022/03/10 06:48:11;;;;;;;24.30;10.60;;;;;;;-2.90;100.00;101085.63;5041923;28;20021;-82
2022/03/10 06:50:37;;;;;;;11.10;5.73;;;;;;;-2.88;100.00;101078.22;5031782;28;20025;-81
2022/03/10 06:53:03;;;;;;;14.03;7.40;;;;;;;-2.82;100.00;101069.59;5031671;28;20572;-82
2022/03/10 06:55:29;;;;;;;10.10;5.60;;;;;;;-2.80;100.00;101082.41;5033067;28;20030;-81
2022/03/10 06:57:55;;;;;;;9.70;5.83;;;;;;;-2.65;100.00;101085.56;5031545;28;20033;-81
2022/03/10 07:00:21;;;;;;;8.40;5.70;;;;;;;-2.62;100.00;101085.84;5033024;28;20033;-82
2022/03/10 07:02:48;;;;;;;9.13;5.97;;;;;;;-2.54;100.00;101085.00;5031712;28;20092;-82
2022/03/10 07:05:13;;;;;;;10.70;7.40;;;;;;;-2.47;100.00;101076.38;5032854;28;20033;-82
2022/03/10 07:07:39;;;;;;;11.10;6.27;;;;;;;-2.58;100.00;101042.44;5032927;28;20037;-82
2022/03/10 07:10:05;;;;;;;14.40;7.00;;;;;;;-2.21;100.00;101078.91;5031538;28;20029;-81
2022/03/10 07:12:34;;;;;;;12.83;7.30;;;;;;;-2.37;100.00;101042.78;5032890;28;20080;-82
2022/03/10 07:15:00;;;;;;;;;;;;;;;-2.07;100.00;101092.91;5033291;28;20050;-83
2022/03/10 07:17:25;;;;;;;9.90;5.83;;;;;;;-2.15;100.00;101056.75;5031391;28;20377;-83
2022/03/10 07:19:50;;;;;;;8.77;5.93;;;;;;;-2.08;100.00;101072.53;5032767;28;20033;-84
2022/03/10 07:22:18;;;;;;;10.87;6.43;;;;;;;-1.90;100.00;101079.38;5031069;28;20041;-85
2022/03/10 07:24:45;;;;;;;10.27;6.37;;;;;;;-1.77;100.00;101070.44;5031357;28;20025;-88
2022/03/10 07:27:12;;;;;;;11.47;6.20;;;;;;;-1.68;100.00;101067.13;5031983;28;20052;-90
2022/03/10 07:29:37;;;;;;;10.23;6.00;;;;;;;-1.83;100.00;101036.19;5031849;28;20033;-90
2022/03/10 07:32:03;;;;;;;9.10;5.67;;;;;;;-1.59;100.00;101059.53;5033833;28;20536;-84
2022/03/10 07:34:29;;;;;;;9.27;5.77;;;;;;;-1.48;98.79;101065.63;5034542;28;20041;-83
2022/03/10 07:36:54;;;;;;;9.23;6.20;;;;;;;-1.36;99.42;101086.13;5034172;28;20403;-83
2022/03/10 07:39:20;;;;;;;27.43;9.67;;;;;;;-1.69;98.02;101014.72;5017312;28;20083;-83
2022/03/10 07:41:46;;;;;;;15.83;7.37;;;;;;;-1.27;97.67;101049.00;5014530;28;20111;-82
2022/03/10 07:44:11;;;;;;;22.87;7.73;;;;;;;-0.98;96.58;101077.03;5014378;28;20408;-79
2022/03/10 07:46:37;;;;;;;21.70;7.47;;;;;;;-0.95;93.54;101062.88;5014312;28;20029;-79
2022/03/10 07:49:04;;;;;;;15.03;9.07;;;;;;;-0.85;93.11;101068.94;4989533;28;20042;-78
2022/03/10 07:51:30;;;;;;;15.13;6.77;;;;;;;-0.63;92.89;101077.63;4989618;28;20100;-78
2022/03/10 07:53:56;;;;;;;11.33;7.10;;;;;;;-0.55;93.40;101081.75;4989864;28;20046;-77
2022/03/10 07:56:21;;;;;;;13.60;7.30;;;;;;;-0.47;94.45;101082.44;4990057;28;20038;-78
2022/03/10 07:58:47;;;;;;;20.77;10.47;;;;;;;-0.70;93.80;101008.59;4973866;28;20046;-78
2022/03/10 08:01:13;;;;;;;10.63;6.17;;;;;;;-0.44;90.76;101054.81;4989161;28;20038;-77
2022/03/10 08:03:38;;;;;;;15.33;11.50;;;;;;;-0.66;89.68;101018.25;4989881;28;20040;-76
2022/03/10 08:06:04;;;;;;;12.20;7.10;;;;;;;-0.27;92.61;101072.44;4973528;28;20031;-76
2022/03/10 08:08:30;;;;;;;8.80;5.77;;;;;;;-0.25;89.85;101067.50;4989685;28;20497;-76
2022/03/10 08:10:56;;;;;;;17.23;7.47;;;;;;;-0.46;91.19;101031.88;4989705;28;20033;-76
2022/03/10 08:13:26;;;;;;;12.30;8.77;;;;;;;-0.09;91.91;101079.94;4989408;28;20073;-76
2022/03/10 08:15:51;;;;;;;14.80;9.70;;;;;;;-0.08;91.53;101048.72;4989641;28;20054;-76
2022/03/10 08:18:17;;;;;;;17.63;11.90;;;;;;;0.11;91.21;101076.63;4989593;28;20110;-76
2022/03/10 08:20:42;;;;;;;16.43;11.90;;;;;;;-0.06;90.82;101020.19;5021788;28;20041;-76
2022/03/10 08:23:09;;;;;;;16.63;9.57;;;;;;;-0.06;90.06;101058.25;5031081;28;20092;-76
2022/03/10 08:25:36;;;;;;;10.13;7.30;;;;;;;-0.24;88.69;101075.25;5031452;28;20108;-76
2022/03/10 08:28:03;;;;;;;18.53;12.67;;;;;;;-0.24;90.13;101075.25;5031491;28;20056;-73
2022/03/10 08:30:28;;;;;;;24.37;13.07;;;;;;;-0.24;89.96;101085.41;5030989;28;20029;-78
2022/03/10 08:32:54;;;;;;;15.20;10.97;;;;;;;-0.13;89.24;101081.28;5013422;28;20476;-76
2022/03/10 08:35:19;;;;;;;11.43;8.40;;;;;;;-0.15;87.31;101074.31;5031258;28;20387;-76
2022/03/10 08:37:45;;;;;;;15.93;8.80;;;;;;;-0.19;87.83;101083.28;4997110;28;20061;-77
2022/03/10 08:40:17;;;;;;;11.43;6.93;;;;;;;0.01;90.47;101084.19;5031319;28;20527;-78
2022/03/10 08:42:47;;;;;;;15.83;8.60;;;;;;;-0.05;90.06;101018.53;5051181;28;20029;-77
2022/03/10 08:45:13;;;;;;;10.00;7.13;;;;;;;0.54;89.01;101088.00;5033040;28;20119;-79
2022/03/10 08:47:39;;;;;;;10.30;7.03;;;;;;;0.58;88.45;101072.25;4988760;28;20089;-79
2022/03/10 08:50:05;;;;;;;10.97;6.90;;;;;;;0.82;87.07;101070.06;4988806;28;20050;-79
2022/03/10 08:52:31;;;;;;;7.40;5.10;;;;;;;0.74;84.21;101073.59;4972782;28;20124;-80
2022/03/10 08:54:56;;;;;;;11.30;5.37;;;;;;;0.76;82.77;101078.06;4989323;28;20524;-85
2022/03/10 08:57:22;;;;;;;6.23;4.00;;;;;;;0.77;79.39;101079.84;4973129;28;20038;-87
2022/03/10 08:59:47;;;;;;;11.03;4.33;;;;;;;0.68;80.08;101084.13;4973720;28;20505;-91
2022/03/10 09:02:13;;;;;;;12.43;7.73;;;;;;;0.77;81.70;101078.94;4974932;28;20037;-91
2022/03/10 09:04:39;;;;;;;13.13;3.90;;;;;;;0.57;79.96;101067.94;4974710;28;20034;-89
2022/03/10 09:07:05;;;;;;;8.40;5.33;;;;;;;0.76;82.63;101077.16;4974526;28;20097;-89
2022/03/10 09:09:31;;;;;;;10.17;5.43;;;;;;;0.94;82.49;101073.63;4990583;28;20031;-90
2022/03/10 09:11:57;;;;;;;12.17;6.10;;;;;;;0.94;80.90;101080.38;4974334;28;20034;-91
2022/03/10 09:14:22;;;;;;;10.43;6.40;;;;;;;0.74;79.48;101043.97;4974118;28;20130;-90
2022/03/10 09:16:51;;;;;;;9.07;5.83;;;;;;;1.00;80.86;101069.84;4973910;28;20533;-90
2022/03/10 09:19:16;;;;;;;5.83;3.97;;;;;;;0.85;79.24;101070.31;4990032;28;20046;-91
2022/03/10 09:21:42;;;;;;;7.80;5.40;;;;;;;0.55;79.96;101020.28;4986438;28;20125;-87
2022/03/10 09:24:08;;;;;;;9.40;5.07;;;;;;;0.73;77.84;101052.38;4995807;28;20035;-85
2022/03/10 09:26:34;;;;;;;16.07;9.60;;;;;;;1.10;79.03;101088.56;5020832;28;20041;-93
2022/03/10 09:28:59;;;;;;;12.53;7.93;;;;;;;1.31;79.95;101065.69;5014531;28;20040;-92
2022/03/10 09:31:25;;;;;;;12.00;8.77;;;;;;;1.66;81.25;101087.19;5023633;28;20029;-88
2022/03/10 09:33:51;;;;;;;10.37;6.77;;;;;;;1.57;76.82;101075.50;5051085;28;20024;-90
2022/03/10 09:36:16;;;;;;;14.60;9.53;;;;;;;1.63;78.75;101085.28;4988598;28;20038;-88
2022/03/10 09:38:42;;;;;;;15.40;10.77;;;;;;;1.67;77.68;101089.88;4972449;28;20083;-87
2022/03/10 09:41:08;;;;;;;7.57;5.20;;;;;;;1.63;76.00;101100.53;4985843;28;20054;-90
2022/03/10 09:43:35;;;;;;;8.37;5.20;;;;;;;1.14;78.07;100993.06;4959832;28;20035;-94
2022/03/10 09:46:01;;;;;;;8.20;5.13;;;;;;;1.43;79.85;101081.06;4970628;28;20125;-91
2022/03/10 09:48:28;;;;;;;7.47;5.10;;;;;;;1.24;77.00;101078.66;4973182;28;20038;-88
2022/03/10 09:50:55;;;;;;;8.30;4.77;;;;;;;1.15;77.38;101073.69;4972685;28;20038;-89
2022/03/10 09:53:21;;;;;;;7.27;4.80;;;;;;;1.20;75.53;101102.06;4971903;28;20113;-92
2022/03/10 09:55:46;;;;;;;5.60;3.83;;;;;;;0.89;74.00;101076.56;4969740;28;20465;-90
2022/03/10 09:58:12;;;;;;;8.03;4.00;;;;;;;1.02;75.50;101096.28;4970102;28;20046;-91
2022/03/10 10:00:37;;;;;;;6.23;3.70;;;;;;;0.68;72.03;101053.63;4970287;28;20055;-92
2022/03/10 10:03:04;;;;;;;9.87;4.90;;;;;;;1.04;74.78;101110.03;4970378;28;20078;-89
2022/03/10 10:05:32;;;;;;;7.97;4.37;;;;;;;1.10;74.19;101082.59;4953231;28;20054;-88
2022/03/10 10:08:09;;;;;;;8.13;4.23;;;;;;;1.65;75.77;101093.94;5017459;28;20037;-87
2022/03/10 10:10:37;;;;;;;12.50;5.90;;;;;;;1.76;75.75;101085.53;5012780;28;20033;-86
2022/03/10 10:13:06;;;;;;;9.33;5.73;;;;;;;1.77;73.70;101069.50;5012472;28;20021;-87
2022/03/10 10:15:43;;;;;;;8.27;4.30;;;;;;;1.53;73.12;101098.88;5012472;28;20115;-88
2022/03/10 10:18:15;;;;;;;5.53;3.93;;;;;;;0.76;74.25;101009.44;5012884;28;20060;-89
2022/03/10 10:20:52;;;;;;;9.00;5.40;;;;;;;0.94;75.79;101055.84;5013606;28;20033;-91
2022/03/10 10:23:28;;;;;;;14.27;8.77;;;;;;;1.13;75.39;101095.56;5013747;28;20036;-89
2022/03/10 10:25:57;;;;;;;9.17;4.97;;;;;;;0.78;75.10;101060.38;5034219;28;20112;-91
2022/03/10 10:28:32;;;;;;;8.73;5.17;;;;;;;0.91;76.01;101075.03;5016737;28;20037;-87
2022/03/10 10:31:03;;;;;;;10.87;5.27;;;;;;;1.00;76.31;101092.72;5016384;28;20488;-88
2022/03/10 10:33:30;;;;;;;15.03;4.53;;;;;;;0.81;73.56;101081.00;5016232;28;20067;-88
2022/03/10 10:36:16;;;;;;;10.23;5.43;;;;;;;0.73;71.33;101099.78;5016125;28;20036;-88
2022/03/10 10:38:44;;;;;;;10.93;6.50;;;;;;;0.74;74.69;101099.91;5016177;28;20214;-86
2022/03/10 10:41:20;;;;;;;8.37;4.30;;;;;;;1.25;74.98;101105.88;5015798;28;20053;-86
2022/03/10 10:43:51;;;;;;;9.67;4.90;;;;;;;1.34;72.65;101050.69;5015647;28;20053;-86
2022/03/10 10:46:58;;;;;;;7.67;4.63;;;;;;;1.39;72.40;101085.03;5015361;28;20476;-83
2022/03/10 10:49:24;;;;;;;9.17;6.07;;;;;;;1.28;72.80;101095.94;4971908;28;20093;-83
2022/03/10 10:51:55;;;;;;;9.50;5.50;;;;;;;1.17;71.33;101087.41;4971824;28;20123;-83
2022/03/10 10:54:20;;;;;;;10.53;6.23;;;;;;;1.34;72.78;101098.13;4971842;28;20408;-83
2022/03/10 10:56:51;;;;;;;7.27;5.10;;;;;;;1.35;70.97;101070.28;4971704;28;20040;-83
2022/03/10 10:59:39;;;;;;;6.77;4.93;;;;;;;1.40;73.54;101050.31;4971542;28;20537;-82
2022/03/10 11:02:09;;;;;;;5.50;3.23;;;;;;;2.24;71.25;101085.94;4955613;28;20031;-83
2022/03/10 11:04:36;;;;;;;9.43;5.10;;;;;;;2.56;70.26;101080.84;4971670;28;20103;-83
2022/03/10 11:07:02;;;;;;;8.80;5.50;;;;;;;2.63;70.54;101068.59;4955066;28;20034;-82
2022/03/10 11:09:30;;;;;;;8.77;5.03;;;;;;;2.16;70.58;101043.69;4955270;28;20031;-82
2022/03/10 11:11:56;;;;;;;12.97;6.30;;;;;;;2.10;68.07;101090.81;4971472;28;20051;-81
2022/03/10 11:14:22;;;;;;;12.47;6.43;;;;;;;2.00;70.50;101077.22;4971389;28;20101;-81
2022/03/10 11:16:48;;;;;;;9.30;5.00;;;;;;;1.94;70.93;101078.53;4971493;28;20061;-81
2022/03/10 11:19:17;;;;;;;10.40;6.77;;;;;;;2.28;71.36;101074.34;4971542;28;20047;-81
2022/03/10 11:22:06;;;;;;;8.33;5.40;;;;;;;2.65;72.88;101072.16;4913616;29;20040;-81
2022/03/10 11:24:31;;;;;;;7.63;5.10;;;;;;;2.74;70.56;101085.63;4927989;29;20046;-81